createdAt,value
2019-01-09T00:01:31.552Z,15.60
2019-01-09T00:04:03.047Z,12.00
2019-01-09T00:06:34.647Z,12.50
2019-01-09T00:09:08.640Z,12.73
2019-01-09T00:11:40.236Z,14.07
2019-01-09T00:14:11.637Z,13.90
2019-01-09T00:16:43.251Z,13.17
2019-01-09T00:19:14.920Z,13.43
2019-01-09T00:21:46.518Z,15.87
2019-01-09T00:24:18.076Z,15.47
2019-01-09T00:26:49.586Z,15.20
2019-01-09T00:29:21.342Z,16.03
2019-01-09T00:31:52.927Z,13.63
2019-01-09T00:34:24.647Z,16.67
2019-01-09T00:36:56.279Z,14.97
2019-01-09T00:39:27.830Z,13.47
2019-01-09T00:41:59.418Z,12.80
2019-01-09T00:44:31.010Z,12.53
2019-01-09T00:47:02.402Z,13.13
2019-01-09T00:49:33.901Z,14.23
2019-01-09T00:52:05.379Z,14.43
2019-01-09T00:54:36.836Z,13.40
2019-01-09T00:57:08.797Z,14.20
2019-01-09T00:59:40.348Z,12.90
2019-01-09T01:02:52.226Z,11.73
2019-01-09T01:05:58.704Z,14.83
2019-01-09T01:09:10.040Z,15.93
2019-01-09T01:12:16.430Z,17.77
2019-01-09T01:15:28.118Z,15.30
2019-01-09T01:18:38.671Z,13.53
2019-01-09T01:21:15.642Z,14.87
2019-01-09T01:24:34.677Z,12.67
2019-01-09T01:27:29.280Z,12.23
2019-01-09T01:30:27.531Z,11.87
2019-01-09T01:33:42.418Z,11.93
2019-01-09T01:36:49.119Z,12.10
2019-01-09T01:39:32.712Z,13.03
2019-01-09T01:42:36.269Z,14.30
2019-01-09T01:46:00.173Z,13.10
2019-01-09T01:49:03.079Z,13.63
2019-01-09T01:52:27.170Z,13.60
2019-01-09T01:55:48.318Z,13.53
2019-01-09T01:58:37.738Z,12.67
2019-01-09T02:01:46.131Z,13.80
2019-01-09T02:05:15.609Z,12.43
2019-01-09T02:08:23.548Z,14.27
2019-01-09T02:11:18.578Z,12.83
2019-01-09T02:14:23.488Z,13.50
2019-01-09T02:17:22.726Z,12.90
2019-01-09T02:20:22.575Z,12.40
2019-01-09T02:23:36.440Z,12.70
2019-01-09T02:26:41.365Z,13.57
2019-01-09T02:29:38.316Z,12.17
2019-01-09T02:32:33.699Z,14.90
2019-01-09T02:35:05.274Z,15.33
2019-01-09T02:37:36.667Z,15.33
2019-01-09T02:40:08.538Z,15.60
2019-01-09T02:42:40.109Z,15.13
2019-01-09T02:45:11.760Z,17.43
2019-01-09T02:47:43.392Z,19.17
2019-01-09T02:50:14.950Z,19.97
2019-01-09T02:52:46.408Z,17.30
2019-01-09T02:55:17.925Z,14.50
2019-01-09T02:57:56.501Z,14.93
2019-01-09T03:00:22.625Z,14.23
2019-01-09T03:02:54.076Z,15.67
2019-01-09T03:05:25.586Z,14.43
2019-01-09T03:07:57.175Z,12.00
2019-01-09T03:10:28.671Z,13.40
2019-01-09T03:13:00.341Z,13.13
2019-01-09T03:15:31.919Z,14.57
2019-01-09T03:18:03.550Z,13.50
2019-01-09T03:20:35.112Z,16.23
2019-01-09T03:23:06.535Z,12.57
2019-01-09T03:25:38.210Z,15.90
2019-01-09T03:28:09.671Z,15.53
2019-01-09T03:30:41.310Z,13.73
2019-01-09T03:33:13.126Z,12.70
2019-01-09T03:35:44.653Z,11.47
2019-01-09T03:38:16.211Z,11.23
2019-01-09T03:40:47.750Z,13.27
2019-01-09T03:43:19.323Z,12.57
2019-01-09T03:45:50.828Z,13.30
2019-01-09T03:48:22.318Z,13.20
2019-01-09T03:50:53.770Z,12.87
2019-01-09T03:53:25.168Z,12.87
2019-01-09T03:55:56.679Z,12.10
2019-01-09T03:58:28.145Z,12.63
2019-01-09T04:00:59.816Z,12.80
2019-01-09T04:03:31.399Z,13.30
2019-01-09T04:06:02.970Z,12.43
2019-01-09T04:08:34.486Z,13.70
2019-01-09T04:11:05.928Z,11.90
2019-01-09T04:13:37.418Z,15.00
2019-01-09T04:16:08.849Z,14.87
2019-01-09T04:18:40.444Z,13.20
2019-01-09T04:21:11.976Z,15.70
2019-01-09T04:23:43.611Z,14.10
2019-01-09T04:26:15.201Z,16.27
2019-01-09T04:28:46.774Z,18.03
2019-01-09T04:31:18.300Z,18.37
2019-01-09T04:33:49.848Z,15.63
2019-01-09T04:36:21.404Z,17.63
2019-01-09T04:38:53.006Z,15.17
2019-01-09T04:41:24.708Z,17.17
2019-01-09T04:43:56.405Z,17.00
2019-01-09T04:46:28.007Z,16.93
2019-01-09T04:48:59.626Z,14.57
2019-01-09T04:51:31.235Z,14.43
2019-01-09T04:54:02.799Z,14.57
2019-01-09T04:56:34.287Z,13.00
2019-01-09T04:59:06.927Z,14.40
2019-01-09T05:01:38.508Z,12.33
2019-01-09T05:04:10.084Z,13.70
2019-01-09T05:06:41.705Z,14.67
2019-01-09T05:09:13.250Z,16.60
2019-01-09T05:11:44.946Z,16.27
2019-01-09T05:14:16.524Z,15.40
2019-01-09T05:16:48.096Z,18.33
2019-01-09T05:19:19.516Z,17.87
2019-01-09T05:21:51.062Z,21.57
2019-01-09T05:24:22.603Z,25.00
2019-01-09T05:26:54.083Z,18.27
2019-01-09T05:29:25.486Z,18.20
2019-01-09T05:31:57.027Z,15.73
2019-01-09T05:34:28.637Z,16.03
2019-01-09T05:37:09.190Z,14.57
2019-01-09T05:39:39.649Z,16.73
2019-01-09T05:42:06.557Z,15.40
2019-01-09T05:44:37.987Z,16.27
2019-01-09T05:47:09.727Z,16.03
2019-01-09T05:49:41.146Z,15.77
2019-01-09T05:52:12.660Z,16.20
2019-01-09T05:54:44.113Z,16.10
2019-01-09T05:57:15.520Z,14.90
2019-01-09T05:59:47.003Z,13.20
2019-01-09T06:02:18.570Z,14.67
2019-01-09T06:04:50.039Z,15.87
2019-01-09T06:07:21.611Z,14.23
2019-01-09T06:09:53.191Z,13.77
2019-01-09T06:12:24.830Z,13.90
2019-01-09T06:14:56.271Z,16.80
2019-01-09T06:17:27.876Z,16.93
2019-01-09T06:19:59.427Z,14.20
2019-01-09T06:22:30.943Z,14.73
2019-01-09T06:25:02.473Z,14.43
2019-01-09T06:27:34.077Z,15.73
2019-01-09T06:30:05.927Z,16.77
2019-01-09T06:32:37.518Z,16.97
2019-01-09T06:35:09.100Z,14.77
2019-01-09T06:37:40.509Z,14.77
2019-01-09T06:40:12.049Z,14.27
2019-01-09T06:42:43.517Z,13.80
2019-01-09T06:45:14.907Z,14.83
2019-01-09T06:47:46.414Z,13.60
2019-01-09T06:50:20.187Z,13.40
2019-01-09T06:52:51.712Z,13.53
2019-01-09T06:55:23.151Z,14.60
2019-01-09T06:57:54.688Z,13.93
2019-01-09T07:00:26.170Z,13.23
2019-01-09T07:02:57.620Z,12.43
2019-01-09T07:05:28.989Z,12.40
2019-01-09T07:08:00.499Z,15.30
2019-01-09T07:10:31.971Z,15.30
2019-01-09T07:13:03.570Z,14.33
2019-01-09T07:15:35.109Z,13.63
2019-01-09T07:18:06.658Z,13.63
2019-01-09T07:20:38.159Z,14.90
2019-01-09T07:23:09.652Z,16.13
2019-01-09T07:25:41.187Z,11.40
2019-01-09T07:28:12.710Z,12.67
2019-01-09T07:30:44.373Z,13.57
2019-01-09T07:33:16.149Z,11.53
2019-01-09T07:35:47.861Z,12.63
2019-01-09T07:38:19.436Z,14.40
2019-01-09T07:40:50.973Z,14.70
2019-01-09T07:43:22.410Z,13.40
2019-01-09T07:45:54.090Z,12.90
2019-01-09T07:48:25.629Z,11.73
2019-01-09T07:50:57.136Z,15.07
2019-01-09T07:53:28.615Z,13.23
2019-01-09T07:55:59.931Z,14.37
2019-01-09T07:58:31.352Z,14.97
2019-01-09T08:01:02.774Z,13.00
2019-01-09T08:03:35.594Z,13.77
2019-01-09T08:06:07.126Z,13.23
2019-01-09T08:08:38.594Z,13.23
2019-01-09T08:11:10.063Z,12.80
2019-01-09T08:13:41.499Z,12.70
2019-01-09T08:16:13.017Z,14.90
2019-01-09T08:18:44.596Z,16.20
2019-01-09T08:21:15.998Z,14.93
2019-01-09T08:23:47.522Z,14.20
2019-01-09T08:26:19.010Z,11.67
2019-01-09T08:28:51.747Z,11.90
2019-01-09T08:31:23.137Z,9.73
2019-01-09T08:33:54.599Z,9.50
2019-01-09T08:36:26.080Z,13.90
2019-01-09T08:38:57.489Z,10.90
2019-01-09T08:41:29.149Z,10.57
2019-01-09T08:44:00.737Z,13.23
2019-01-09T08:46:32.311Z,10.43
2019-01-09T08:49:03.761Z,9.30
2019-01-09T08:51:35.381Z,10.00
2019-01-09T08:54:06.878Z,10.33
2019-01-09T08:56:39.639Z,9.13
2019-01-09T08:59:11.018Z,9.63
2019-01-09T09:01:42.624Z,8.97
2019-01-09T09:04:14.271Z,9.13
2019-01-09T09:06:45.807Z,9.43
2019-01-09T09:09:19.191Z,13.23
2019-01-09T09:11:50.605Z,15.63
2019-01-09T09:14:22.111Z,9.80
2019-01-09T09:16:53.510Z,10.00
2019-01-09T09:19:25.018Z,9.83
2019-01-09T09:21:56.451Z,10.63
2019-01-09T09:24:27.827Z,10.73
2019-01-09T09:26:59.548Z,9.73
2019-01-09T09:29:32.177Z,14.10
2019-01-09T09:32:04.065Z,10.10
2019-01-09T09:34:35.647Z,11.37
2019-01-09T09:37:07.067Z,9.60
2019-01-09T09:39:39.661Z,9.73
2019-01-09T09:42:11.221Z,30.87
2019-01-09T09:44:43.158Z,17.87
2019-01-09T09:47:14.661Z,15.67
2019-01-09T09:49:46.661Z,14.50
2019-01-09T09:52:18.298Z,13.93
2019-01-09T09:54:49.908Z,15.57
2019-01-09T09:57:23.054Z,10.80
2019-01-09T09:59:54.529Z,15.00
2019-01-09T10:02:25.949Z,16.60
2019-01-09T10:04:57.559Z,11.80
2019-01-09T10:07:29.011Z,17.03
2019-01-09T10:10:00.574Z,20.93
2019-01-09T10:12:32.017Z,14.20
2019-01-09T10:15:03.524Z,13.43
2019-01-09T10:17:35.002Z,22.20
2019-01-09T10:20:10.066Z,13.13
2019-01-09T10:22:41.712Z,9.80
2019-01-09T10:25:13.898Z,24.90
2019-01-09T10:27:45.270Z,10.87
2019-01-09T10:30:18.721Z,15.03
2019-01-09T10:32:50.266Z,14.60
2019-01-09T10:35:22.045Z,16.77
2019-01-09T10:37:53.576Z,16.30
2019-01-09T10:40:25.342Z,12.37
2019-01-09T10:42:56.917Z,15.00
2019-01-09T10:45:28.559Z,10.57
2019-01-09T10:48:00.062Z,8.63
2019-01-09T10:50:31.446Z,11.33
2019-01-09T10:53:02.861Z,8.83
2019-01-09T10:55:34.365Z,10.63
2019-01-09T10:58:05.908Z,8.40
2019-01-09T11:00:37.439Z,8.53
2019-01-09T11:03:08.833Z,8.63
2019-01-09T11:05:40.254Z,9.43
2019-01-09T11:08:11.725Z,9.63
2019-01-09T11:10:43.223Z,8.40
2019-01-09T11:13:14.616Z,8.90
2019-01-09T11:15:46.120Z,10.20
2019-01-09T11:18:17.666Z,9.33
2019-01-09T11:20:49.238Z,11.23
2019-01-09T11:23:20.879Z,9.40
2019-01-09T11:25:52.346Z,9.47
2019-01-09T11:28:23.852Z,11.60
2019-01-09T11:30:55.321Z,10.80
2019-01-09T11:33:26.697Z,10.30
2019-01-09T11:35:58.255Z,10.77
2019-01-09T11:38:29.774Z,14.27
2019-01-09T11:41:01.330Z,11.50
2019-01-09T11:43:32.717Z,9.63
2019-01-09T11:46:04.169Z,8.50
2019-01-09T11:48:35.697Z,8.27
2019-01-09T11:51:07.202Z,8.67
2019-01-09T11:53:38.588Z,8.17
2019-01-09T11:56:10.067Z,6.73
2019-01-09T11:58:41.541Z,7.30
2019-01-09T12:01:13.033Z,6.57
2019-01-09T12:03:44.519Z,9.47
2019-01-09T12:06:17.084Z,10.60
2019-01-09T12:08:49.464Z,9.43
2019-01-09T12:11:21.090Z,7.87
2019-01-09T12:13:53.445Z,9.90
2019-01-09T12:16:25.115Z,7.60
2019-01-09T12:18:57.432Z,6.10
2019-01-09T12:21:31.532Z,5.77
2019-01-09T12:24:03.109Z,7.10
2019-01-09T12:26:34.604Z,6.83
2019-01-09T12:29:06.144Z,6.67
2019-01-09T12:31:37.712Z,6.23
2019-01-09T12:34:09.160Z,6.40
2019-01-09T12:36:40.663Z,29.33
2019-01-09T12:39:13.291Z,7.17
2019-01-09T12:41:45.394Z,6.87
2019-01-09T12:44:16.889Z,9.73
2019-01-09T12:46:48.326Z,7.80
2019-01-09T12:49:19.905Z,6.57
2019-01-09T12:51:51.218Z,5.40
2019-01-09T12:54:22.579Z,5.67
2019-01-09T12:56:54.091Z,5.43
2019-01-09T12:59:25.621Z,7.50
2019-01-09T13:01:56.910Z,6.00
2019-01-09T13:04:28.329Z,5.77
2019-01-09T13:06:59.635Z,6.17
2019-01-09T13:09:31.073Z,8.17
2019-01-09T13:12:02.535Z,8.83
2019-01-09T13:14:34.110Z,11.43
2019-01-09T13:17:11.894Z,9.20
2019-01-09T13:19:38.730Z,10.87
2019-01-09T13:22:10.246Z,9.20
2019-01-09T13:24:41.669Z,9.20
2019-01-09T13:27:15.026Z,9.83
2019-01-09T13:29:46.404Z,9.07
2019-01-09T13:32:17.758Z,9.23
2019-01-09T13:34:49.173Z,8.23
2019-01-09T13:37:20.617Z,9.40
2019-01-09T13:39:51.951Z,9.67
2019-01-09T13:42:24.661Z,9.63
2019-01-09T13:44:56.024Z,8.97
2019-01-09T13:47:27.927Z,10.73
2019-01-09T13:49:59.414Z,11.80
2019-01-09T13:52:30.993Z,12.60
2019-01-09T13:55:02.453Z,21.43
2019-01-09T13:57:33.881Z,36.73
2019-01-09T14:00:06.451Z,37.37
2019-01-09T14:02:37.882Z,43.47
2019-01-09T14:05:09.540Z,44.13
2019-01-09T14:07:40.981Z,38.60
2019-01-09T14:10:14.734Z,21.60
2019-01-09T14:12:46.219Z,18.13
2019-01-09T14:15:19.532Z,10.07
2019-01-09T14:17:50.904Z,24.90
2019-01-09T14:20:22.535Z,18.47
2019-01-09T14:22:54.061Z,18.90
2019-01-09T14:25:25.495Z,15.90
2019-01-09T14:27:57.048Z,13.03
2019-01-09T14:30:29.829Z,14.83
2019-01-09T14:33:01.727Z,28.43
2019-01-09T14:35:33.037Z,17.50
2019-01-09T14:38:04.538Z,22.13
2019-01-09T14:40:37.264Z,21.53
2019-01-09T14:43:08.853Z,24.80
2019-01-09T14:45:40.206Z,25.80
2019-01-09T14:48:11.463Z,18.53
2019-01-09T14:50:42.796Z,17.07
2019-01-09T14:53:14.173Z,36.47
2019-01-09T14:55:46.351Z,21.00
2019-01-09T14:58:17.690Z,26.03
2019-01-09T15:00:49.078Z,15.20
2019-01-09T15:03:20.658Z,12.10
2019-01-09T15:05:52.228Z,14.73
2019-01-09T15:08:24.293Z,13.60
2019-01-09T15:10:55.780Z,22.07
2019-01-09T15:13:27.267Z,19.83
2019-01-09T15:15:58.539Z,13.63
2019-01-09T15:18:30.009Z,11.40
2019-01-09T15:21:01.602Z,17.43
2019-01-09T15:23:34.304Z,24.53
2019-01-09T15:26:05.740Z,36.63
2019-01-09T15:28:37.245Z,47.60
2019-01-09T15:31:08.728Z,22.70
2019-01-09T15:33:40.172Z,16.73
2019-01-09T15:36:11.532Z,14.53
2019-01-09T15:38:43.097Z,14.47
2019-01-09T15:41:14.406Z,12.63
2019-01-09T15:43:45.950Z,15.13
2019-01-09T15:46:17.424Z,15.33
2019-01-09T15:48:48.842Z,17.77
2019-01-09T15:51:20.314Z,16.33
2019-01-09T15:53:52.910Z,15.27
2019-01-09T15:56:24.430Z,11.87
2019-01-09T15:58:56.462Z,13.63
2019-01-09T16:01:30.223Z,10.50
2019-01-09T16:04:03.120Z,15.60
2019-01-09T16:06:38.912Z,14.60
2019-01-09T16:09:11.743Z,14.20
2019-01-09T16:11:45.213Z,14.73
2019-01-09T16:14:20.521Z,14.57
2019-01-09T16:16:52.143Z,11.80
2019-01-09T16:19:23.613Z,8.57
2019-01-09T16:21:55.194Z,9.07
2019-01-09T16:24:26.461Z,10.10
2019-01-09T16:26:57.947Z,10.27
2019-01-09T16:29:29.440Z,10.70
2019-01-09T16:32:00.816Z,10.57
2019-01-09T16:34:32.365Z,13.47
2019-01-09T16:37:05.429Z,13.57
2019-01-09T16:39:36.947Z,13.67
2019-01-09T16:42:08.571Z,16.10
2019-01-09T16:44:40.104Z,17.33
2019-01-09T16:47:11.601Z,20.93
2019-01-09T16:49:43.636Z,17.50
2019-01-09T16:52:14.992Z,15.60
2019-01-09T16:54:46.469Z,12.47
2019-01-09T16:57:17.956Z,13.63
2019-01-09T16:59:49.557Z,14.07
2019-01-09T17:02:20.981Z,15.73
2019-01-09T17:04:52.442Z,13.63
2019-01-09T17:07:24.029Z,16.87
2019-01-09T17:10:01.295Z,15.00
2019-01-09T17:12:33.111Z,14.67
2019-01-09T17:15:06.525Z,14.13
2019-01-09T17:17:39.379Z,15.60
2019-01-09T17:20:13.968Z,15.13
2019-01-09T17:22:45.418Z,15.27
2019-01-09T17:25:16.823Z,16.00
2019-01-09T17:27:49.448Z,17.20
2019-01-09T17:30:23.161Z,18.53
2019-01-09T17:32:54.579Z,17.23
2019-01-09T17:35:25.950Z,16.57
2019-01-09T17:37:58.764Z,15.40
2019-01-09T17:40:30.260Z,20.27
2019-01-09T17:43:01.640Z,17.33
2019-01-09T17:45:33.161Z,16.33
2019-01-09T17:48:04.823Z,17.77
2019-01-09T17:50:37.430Z,15.73
2019-01-09T17:53:09.048Z,15.07
2019-01-09T17:55:40.528Z,15.30
2019-01-09T17:58:11.950Z,18.07
2019-01-09T18:00:43.637Z,19.87
2019-01-09T18:03:15.158Z,14.90
2019-01-09T18:05:46.590Z,17.93
2019-01-09T18:08:18.228Z,19.33
2019-01-09T18:10:50.611Z,18.07
2019-01-09T18:13:22.210Z,16.33
2019-01-09T18:15:53.622Z,17.43
2019-01-09T18:18:25.024Z,18.33
2019-01-09T18:20:56.330Z,14.07
2019-01-09T18:23:27.607Z,15.37
2019-01-09T18:25:59.100Z,16.27
2019-01-09T18:28:30.389Z,16.67
2019-01-09T18:31:50.924Z,15.07
2019-01-09T18:34:30.825Z,13.87
2019-01-09T18:37:29.731Z,16.80
2019-01-09T18:40:27.460Z,15.37
2019-01-09T18:43:39.251Z,16.17
2019-01-09T18:46:53.181Z,17.93
2019-01-09T18:50:00.981Z,16.70
2019-01-09T18:52:45.812Z,16.17
2019-01-09T18:55:17.356Z,16.17
2019-01-09T18:57:48.839Z,17.60
2019-01-09T19:00:23.170Z,12.33
2019-01-09T19:02:54.700Z,18.40
2019-01-09T19:05:26.298Z,14.73
2019-01-09T19:07:57.751Z,19.97
2019-01-09T19:10:29.567Z,19.33
2019-01-09T19:13:00.961Z,20.33
2019-01-09T19:15:32.460Z,23.13
2019-01-09T19:18:03.861Z,20.30
2019-01-09T19:20:35.222Z,22.60
2019-01-09T19:23:06.541Z,25.33
2019-01-09T19:25:46.859Z,20.37
2019-01-09T19:28:24.584Z,21.53
2019-01-09T19:30:57.022Z,21.10
2019-01-09T19:33:29.646Z,15.20
2019-01-09T19:36:01.065Z,21.27
2019-01-09T19:38:32.503Z,16.07
2019-01-09T19:41:03.964Z,17.07
2019-01-09T19:43:35.441Z,15.10
2019-01-09T19:46:07.093Z,20.17
2019-01-09T19:48:38.504Z,20.83
2019-01-09T19:51:17.310Z,15.23
2019-01-09T19:53:45.421Z,17.40
2019-01-09T19:56:16.934Z,16.67
2019-01-09T19:58:49.892Z,13.93
2019-01-09T20:01:21.420Z,16.17
2019-01-09T20:03:52.844Z,11.63
2019-01-09T20:06:25.741Z,10.00
2019-01-09T20:08:57.360Z,10.13
2019-01-09T20:11:28.935Z,11.63
2019-01-09T20:14:00.498Z,11.23
2019-01-09T20:16:32.060Z,14.10
2019-01-09T20:19:03.466Z,13.57
2019-01-09T20:21:34.930Z,16.87
2019-01-09T20:24:06.578Z,17.93
2019-01-09T20:26:38.038Z,19.50
2019-01-09T20:29:09.380Z,26.13
2019-01-09T20:31:40.936Z,34.03
2019-01-09T20:34:12.534Z,38.10
2019-01-09T20:36:44.101Z,63.80
2019-01-09T20:39:15.546Z,17.27
2019-01-09T20:41:47.208Z,25.87
2019-01-09T20:44:18.844Z,36.63
2019-01-09T20:46:50.696Z,7.30
2019-01-09T20:49:22.360Z,12.57
2019-01-09T20:51:54.073Z,27.43
2019-01-09T20:54:25.441Z,7.93
2019-01-09T20:56:59.532Z,10.07
2019-01-09T20:59:31.390Z,7.37
2019-01-09T21:02:02.960Z,9.97
2019-01-09T21:04:34.590Z,11.43
2019-01-09T21:07:14.716Z,9.13
2019-01-09T21:09:49.227Z,9.40
2019-01-09T21:12:20.597Z,13.83
2019-01-09T21:14:52.196Z,10.53
2019-01-09T21:17:41.267Z,10.67
2019-01-09T21:20:15.441Z,9.57
2019-01-09T21:22:47.148Z,10.03
2019-01-09T21:25:19.316Z,11.60
2019-01-09T21:27:50.921Z,12.27
2019-01-09T21:30:24.073Z,14.43
2019-01-09T21:32:55.852Z,11.17
2019-01-09T21:35:27.390Z,16.47
2019-01-09T21:38:00.262Z,8.90
2019-01-09T21:40:32.130Z,15.83
2019-01-09T21:43:03.646Z,57.93
2019-01-09T21:45:35.153Z,19.33
2019-01-09T21:48:06.915Z,17.33
2019-01-09T21:50:38.612Z,9.63
2019-01-09T21:53:10.030Z,17.07
2019-01-09T21:55:41.507Z,13.93
2019-01-09T21:58:12.922Z,13.77
2019-01-09T22:00:44.490Z,10.43
2019-01-09T22:03:16.079Z,11.90
2019-01-09T22:05:48.805Z,15.53
2019-01-09T22:08:20.202Z,14.80
2019-01-09T22:10:51.722Z,16.00
2019-01-09T22:13:23.254Z,15.43
2019-01-09T22:15:54.691Z,18.20
2019-01-09T22:18:26.108Z,12.73
2019-01-09T22:20:57.480Z,13.93
2019-01-09T22:23:29.097Z,15.20
2019-01-09T22:26:00.712Z,16.73
2019-01-09T22:28:32.252Z,29.37
2019-01-09T22:31:06.363Z,19.60
2019-01-09T22:33:37.793Z,13.73
2019-01-09T22:36:09.309Z,19.07
2019-01-09T22:38:40.902Z,15.50
2019-01-09T22:41:12.420Z,17.13
2019-01-09T22:43:43.767Z,20.77
2019-01-09T22:46:15.201Z,19.33
2019-01-09T22:48:46.545Z,19.43
2019-01-09T22:51:18.249Z,16.10
2019-01-09T22:53:49.503Z,21.60
2019-01-09T22:56:20.992Z,22.17
2019-01-09T22:58:52.471Z,23.33
2019-01-09T23:01:36.265Z,22.00
2019-01-09T23:04:09.991Z,21.17
2019-01-09T23:06:53.135Z,22.23
2019-01-09T23:09:41.011Z,26.13
2019-01-09T23:12:21.014Z,22.30
2019-01-09T23:14:47.539Z,22.47
2019-01-09T23:17:18.981Z,20.50
2019-01-09T23:19:50.160Z,15.23
2019-01-09T23:22:21.500Z,19.40
2019-01-09T23:24:52.866Z,18.87
2019-01-09T23:27:24.311Z,20.93
2019-01-09T23:29:55.759Z,19.43
2019-01-09T23:32:27.091Z,17.67
2019-01-09T23:34:58.405Z,13.43
2019-01-09T23:37:29.779Z,14.30
2019-01-09T23:40:01.460Z,16.07
2019-01-09T23:42:32.821Z,15.53
2019-01-09T23:45:04.150Z,15.30
2019-01-09T23:47:35.487Z,14.50
2019-01-09T23:50:07.309Z,15.23
2019-01-09T23:52:38.652Z,11.23
2019-01-09T23:55:10.141Z,12.27
2019-01-09T23:57:41.418Z,15.13
